sensor_id;sensor_type;location;lat;lon;timestamp;temperature;humidity
25440;DHT22;13365;52.208;5.488;2024-03-22T00:00:38;16.70;99.90
25440;DHT22;13365;52.208;5.488;2024-03-22T00:03:04;16.80;99.90
25440;DHT22;13365;52.208;5.488;2024-03-22T00:05:29;16.70;99.90
25440;DHT22;13365;52.208;5.488;2024-03-22T00:07:55;16.70;99.90
25440;DHT22;13365;52.208;5.488;2024-03-22T00:10:20;16.70;99.90
25440;DHT22;13365;52.208;5.488;2024-03-22T00:12:45;16.70;99.90
25440;DHT22;13365;52.208;5.488;2024-03-22T00:15:11;16.70;99.90
25440;DHT22;13365;52.208;5.488;2024-03-22T00:17:36;16.70;99.90
25440;DHT22;13365;52.208;5.488;2024-03-22T00:20:02;16.90;99.90
25440;DHT22;13365;52.208;5.488;2024-03-22T00:22:27;17.00;99.90
25440;DHT22;13365;52.208;5.488;2024-03-22T00:24:53;16.80;99.90
25440;DHT22;13365;52.208;5.488;2024-03-22T00:27:18;16.90;99.90
25440;DHT22;13365;52.208;5.488;2024-03-22T00:29:44;16.70;99.90
25440;DHT22;13365;52.208;5.488;2024-03-22T00:32:09;16.60;99.90
25440;DHT22;13365;52.208;5.488;2024-03-22T00:34:35;16.60;99.90
25440;DHT22;13365;52.208;5.488;2024-03-22T00:37:00;16.80;99.90
25440;DHT22;13365;52.208;5.488;2024-03-22T00:39:26;16.70;99.90
25440;DHT22;13365;52.208;5.488;2024-03-22T00:41:51;16.50;99.90
25440;DHT22;13365;52.208;5.488;2024-03-22T00:44:17;16.50;99.90
25440;DHT22;13365;52.208;5.488;2024-03-22T00:46:42;16.60;99.90
25440;DHT22;13365;52.208;5.488;2024-03-22T00:49:08;16.70;99.90
25440;DHT22;13365;52.208;5.488;2024-03-22T00:51:33;16.70;99.90
25440;DHT22;13365;52.208;5.488;2024-03-22T00:53:59;16.60;99.90
25440;DHT22;13365;52.208;5.488;2024-03-22T00:56:24;16.80;99.90
25440;DHT22;13365;52.208;5.488;2024-03-22T00:58:50;16.80;99.90
25440;DHT22;13365;52.208;5.488;2024-03-22T01:01:15;16.70;99.90
25440;DHT22;13365;52.208;5.488;2024-03-22T01:03:41;16.50;99.90
25440;DHT22;13365;52.208;5.488;2024-03-22T01:06:06;16.70;99.90
25440;DHT22;13365;52.208;5.488;2024-03-22T01:08:32;16.60;99.90
25440;DHT22;13365;52.208;5.488;2024-03-22T01:10:58;16.70;99.90
25440;DHT22;13365;52.208;5.488;2024-03-22T01:13:23;16.80;99.90
25440;DHT22;13365;52.208;5.488;2024-03-22T01:15:49;16.70;99.90
25440;DHT22;13365;52.208;5.488;2024-03-22T01:18:14;16.70;99.90
25440;DHT22;13365;52.208;5.488;2024-03-22T01:20:40;16.70;99.90
25440;DHT22;13365;52.208;5.488;2024-03-22T01:23:07;16.60;99.90
25440;DHT22;13365;52.208;5.488;2024-03-22T01:25:33;16.60;99.90
25440;DHT22;13365;52.208;5.488;2024-03-22T01:27:58;16.80;99.90
25440;DHT22;13365;52.208;5.488;2024-03-22T01:30:24;16.70;99.90
25440;DHT22;13365;52.208;5.488;2024-03-22T01:32:54;16.70;99.90
25440;DHT22;13365;52.208;5.488;2024-03-22T01:35:19;16.80;99.90
25440;DHT22;13365;52.208;5.488;2024-03-22T01:37:45;16.80;99.90
25440;DHT22;13365;52.208;5.488;2024-03-22T01:40:10;16.90;99.90
25440;DHT22;13365;52.208;5.488;2024-03-22T01:42:36;16.90;99.90
25440;DHT22;13365;52.208;5.488;2024-03-22T01:45:01;16.90;99.90
25440;DHT22;13365;52.208;5.488;2024-03-22T01:47:28;16.90;99.90
25440;DHT22;13365;52.208;5.488;2024-03-22T01:49:54;16.80;99.90
25440;DHT22;13365;52.208;5.488;2024-03-22T01:52:20;16.90;99.90
25440;DHT22;13365;52.208;5.488;2024-03-22T01:54:46;16.90;99.90
25440;DHT22;13365;52.208;5.488;2024-03-22T01:57:11;16.80;99.90
25440;DHT22;13365;52.208;5.488;2024-03-22T01:59:36;16.80;99.90
25440;DHT22;13365;52.208;5.488;2024-03-22T02:02:02;16.80;99.90
25440;DHT22;13365;52.208;5.488;2024-03-22T02:04:28;16.70;99.90
25440;DHT22;13365;52.208;5.488;2024-03-22T02:06:53;16.50;99.90
25440;DHT22;13365;52.208;5.488;2024-03-22T02:09:19;16.40;99.90
25440;DHT22;13365;52.208;5.488;2024-03-22T02:11:46;16.30;99.90
25440;DHT22;13365;52.208;5.488;2024-03-22T02:14:12;16.00;99.90
25440;DHT22;13365;52.208;5.488;2024-03-22T02:16:39;16.10;99.90
25440;DHT22;13365;52.208;5.488;2024-03-22T02:19:04;16.00;99.90
25440;DHT22;13365;52.208;5.488;2024-03-22T02:21:30;16.10;99.90
25440;DHT22;13365;52.208;5.488;2024-03-22T02:23:55;16.10;99.90
25440;DHT22;13365;52.208;5.488;2024-03-22T02:26:21;15.80;99.90
25440;DHT22;13365;52.208;5.488;2024-03-22T02:28:46;15.80;99.90
25440;DHT22;13365;52.208;5.488;2024-03-22T02:31:12;15.70;99.90
25440;DHT22;13365;52.208;5.488;2024-03-22T02:33:37;15.70;99.90
25440;DHT22;13365;52.208;5.488;2024-03-22T02:36:03;15.50;99.90
25440;DHT22;13365;52.208;5.488;2024-03-22T02:38:28;15.40;99.90
25440;DHT22;13365;52.208;5.488;2024-03-22T02:40:54;15.40;99.90
25440;DHT22;13365;52.208;5.488;2024-03-22T02:43:19;15.70;99.90
25440;DHT22;13365;52.208;5.488;2024-03-22T02:45:46;15.60;99.90
25440;DHT22;13365;52.208;5.488;2024-03-22T02:48:12;15.80;99.90
25440;DHT22;13365;52.208;5.488;2024-03-22T02:50:38;16.00;99.90
25440;DHT22;13365;52.208;5.488;2024-03-22T02:53:03;16.10;99.90
25440;DHT22;13365;52.208;5.488;2024-03-22T02:55:29;16.10;99.90
25440;DHT22;13365;52.208;5.488;2024-03-22T02:57:56;16.10;99.90
25440;DHT22;13365;52.208;5.488;2024-03-22T03:00:21;16.00;99.90
25440;DHT22;13365;52.208;5.488;2024-03-22T03:02:47;16.00;99.90
25440;DHT22;13365;52.208;5.488;2024-03-22T03:05:12;16.30;99.90
25440;DHT22;13365;52.208;5.488;2024-03-22T03:07:38;16.40;99.90
25440;DHT22;13365;52.208;5.488;2024-03-22T03:10:03;16.40;99.90
25440;DHT22;13365;52.208;5.488;2024-03-22T03:12:29;16.30;99.90
25440;DHT22;13365;52.208;5.488;2024-03-22T03:14:54;16.40;99.90
25440;DHT22;13365;52.208;5.488;2024-03-22T03:17:20;16.30;99.90
25440;DHT22;13365;52.208;5.488;2024-03-22T03:19:45;16.00;99.90
25440;DHT22;13365;52.208;5.488;2024-03-22T03:22:11;16.10;99.90
25440;DHT22;13365;52.208;5.488;2024-03-22T03:24:36;16.00;99.90
25440;DHT22;13365;52.208;5.488;2024-03-22T03:27:02;15.90;99.90
25440;DHT22;13365;52.208;5.488;2024-03-22T03:29:28;16.00;99.90
25440;DHT22;13365;52.208;5.488;2024-03-22T03:31:53;16.00;99.90
25440;DHT22;13365;52.208;5.488;2024-03-22T03:34:19;16.00;99.90
25440;DHT22;13365;52.208;5.488;2024-03-22T03:36:45;16.00;99.90
25440;DHT22;13365;52.208;5.488;2024-03-22T03:39:11;16.00;99.90
25440;DHT22;13365;52.208;5.488;2024-03-22T03:41:36;15.80;99.90
25440;DHT22;13365;52.208;5.488;2024-03-22T03:44:02;15.90;99.90
25440;DHT22;13365;52.208;5.488;2024-03-22T03:46:27;15.80;99.90
25440;DHT22;13365;52.208;5.488;2024-03-22T03:48:53;16.00;99.90
25440;DHT22;13365;52.208;5.488;2024-03-22T03:51:18;16.20;99.90
25440;DHT22;13365;52.208;5.488;2024-03-22T03:53:44;16.10;99.90
25440;DHT22;13365;52.208;5.488;2024-03-22T03:56:09;16.10;99.90
25440;DHT22;13365;52.208;5.488;2024-03-22T03:58:34;16.00;99.90
25440;DHT22;13365;52.208;5.488;2024-03-22T04:01:04;16.00;99.90
25440;DHT22;13365;52.208;5.488;2024-03-22T04:03:30;16.00;99.90
25440;DHT22;13365;52.208;5.488;2024-03-22T04:05:56;16.10;99.90
25440;DHT22;13365;52.208;5.488;2024-03-22T04:08:21;16.00;99.90
25440;DHT22;13365;52.208;5.488;2024-03-22T04:10:51;15.70;99.90
25440;DHT22;13365;52.208;5.488;2024-03-22T04:13:17;15.70;99.90
25440;DHT22;13365;52.208;5.488;2024-03-22T04:15:42;15.60;99.90
25440;DHT22;13365;52.208;5.488;2024-03-22T04:18:08;15.70;99.90
25440;DHT22;13365;52.208;5.488;2024-03-22T04:20:33;15.70;99.90
25440;DHT22;13365;52.208;5.488;2024-03-22T04:22:58;15.70;99.90
25440;DHT22;13365;52.208;5.488;2024-03-22T04:25:25;15.50;99.90
25440;DHT22;13365;52.208;5.488;2024-03-22T04:27:50;15.60;99.90
25440;DHT22;13365;52.208;5.488;2024-03-22T04:30:16;15.80;99.90
25440;DHT22;13365;52.208;5.488;2024-03-22T04:32:41;15.70;99.90
25440;DHT22;13365;52.208;5.488;2024-03-22T04:35:07;15.70;99.90
25440;DHT22;13365;52.208;5.488;2024-03-22T04:37:33;15.50;99.90
25440;DHT22;13365;52.208;5.488;2024-03-22T04:39:58;15.60;99.90
25440;DHT22;13365;52.208;5.488;2024-03-22T04:42:23;15.60;99.90
25440;DHT22;13365;52.208;5.488;2024-03-22T04:44:49;15.50;99.90
25440;DHT22;13365;52.208;5.488;2024-03-22T04:47:14;15.80;99.90
25440;DHT22;13365;52.208;5.488;2024-03-22T04:49:40;15.90;99.90
25440;DHT22;13365;52.208;5.488;2024-03-22T04:52:06;15.90;99.90
25440;DHT22;13365;52.208;5.488;2024-03-22T04:54:31;16.00;99.90
25440;DHT22;13365;52.208;5.488;2024-03-22T04:56:57;16.00;99.90
25440;DHT22;13365;52.208;5.488;2024-03-22T04:59:22;15.90;99.90
25440;DHT22;13365;52.208;5.488;2024-03-22T05:01:48;16.00;99.90
25440;DHT22;13365;52.208;5.488;2024-03-22T05:04:13;16.00;99.90
25440;DHT22;13365;52.208;5.488;2024-03-22T05:06:39;16.00;99.90
25440;DHT22;13365;52.208;5.488;2024-03-22T05:09:04;15.90;99.90
25440;DHT22;13365;52.208;5.488;2024-03-22T05:11:29;16.00;99.90
25440;DHT22;13365;52.208;5.488;2024-03-22T05:13:57;15.40;99.90
25440;DHT22;13365;52.208;5.488;2024-03-22T05:16:22;15.50;99.90
25440;DHT22;13365;52.208;5.488;2024-03-22T05:18:49;15.40;99.90
25440;DHT22;13365;52.208;5.488;2024-03-22T05:21:14;15.10;99.90
25440;DHT22;13365;52.208;5.488;2024-03-22T05:23:39;15.10;99.90
25440;DHT22;13365;52.208;5.488;2024-03-22T05:26:05;15.20;99.90
25440;DHT22;13365;52.208;5.488;2024-03-22T05:28:30;15.10;99.90
25440;DHT22;13365;52.208;5.488;2024-03-22T05:30:56;15.10;99.90
25440;DHT22;13365;52.208;5.488;2024-03-22T05:33:21;15.10;99.90
25440;DHT22;13365;52.208;5.488;2024-03-22T05:35:47;15.30;99.90
25440;DHT22;13365;52.208;5.488;2024-03-22T05:38:12;15.10;99.90
25440;DHT22;13365;52.208;5.488;2024-03-22T05:40:38;14.80;99.90
25440;DHT22;13365;52.208;5.488;2024-03-22T05:43:04;14.60;99.90
25440;DHT22;13365;52.208;5.488;2024-03-22T05:45:29;14.70;99.90
25440;DHT22;13365;52.208;5.488;2024-03-22T05:47:55;14.70;99.90
25440;DHT22;13365;52.208;5.488;2024-03-22T05:50:20;14.40;99.90
25440;DHT22;13365;52.208;5.488;2024-03-22T05:52:46;14.70;99.90
25440;DHT22;13365;52.208;5.488;2024-03-22T05:55:11;14.70;99.90
25440;DHT22;13365;52.208;5.488;2024-03-22T05:57:37;15.00;99.90
25440;DHT22;13365;52.208;5.488;2024-03-22T06:00:02;14.80;99.90
25440;DHT22;13365;52.208;5.488;2024-03-22T06:02:28;14.80;99.90
25440;DHT22;13365;52.208;5.488;2024-03-22T06:04:53;14.80;99.90
25440;DHT22;13365;52.208;5.488;2024-03-22T06:07:19;14.90;99.90
25440;DHT22;13365;52.208;5.488;2024-03-22T06:09:44;14.90;99.90
25440;DHT22;13365;52.208;5.488;2024-03-22T06:12:13;14.90;99.90
25440;DHT22;13365;52.208;5.488;2024-03-22T06:14:39;14.60;99.90
25440;DHT22;13365;52.208;5.488;2024-03-22T06:17:05;14.60;99.90
25440;DHT22;13365;52.208;5.488;2024-03-22T06:19:30;14.70;99.90
25440;DHT22;13365;52.208;5.488;2024-03-22T06:21:56;14.80;99.90
25440;DHT22;13365;52.208;5.488;2024-03-22T06:24:21;14.90;99.90
25440;DHT22;13365;52.208;5.488;2024-03-22T06:26:46;14.70;99.90
25440;DHT22;13365;52.208;5.488;2024-03-22T06:29:14;14.90;99.90
25440;DHT22;13365;52.208;5.488;2024-03-22T06:31:41;15.00;99.90
25440;DHT22;13365;52.208;5.488;2024-03-22T06:34:07;15.10;99.90
25440;DHT22;13365;52.208;5.488;2024-03-22T06:36:32;14.90;99.90
25440;DHT22;13365;52.208;5.488;2024-03-22T06:38:58;14.70;99.90
25440;DHT22;13365;52.208;5.488;2024-03-22T06:41:24;14.90;99.90
25440;DHT22;13365;52.208;5.488;2024-03-22T06:43:51;15.00;99.90
25440;DHT22;13365;52.208;5.488;2024-03-22T06:46:16;15.00;99.90
25440;DHT22;13365;52.208;5.488;2024-03-22T06:48:42;15.20;99.90
25440;DHT22;13365;52.208;5.488;2024-03-22T06:51:07;15.30;99.90
25440;DHT22;13365;52.208;5.488;2024-03-22T06:53:33;15.30;99.90
25440;DHT22;13365;52.208;5.488;2024-03-22T06:55:59;15.30;99.90
25440;DHT22;13365;52.208;5.488;2024-03-22T06:58:24;15.10;99.90
25440;DHT22;13365;52.208;5.488;2024-03-22T07:00:50;15.30;99.90
25440;DHT22;13365;52.208;5.488;2024-03-22T07:03:16;15.30;99.90
25440;DHT22;13365;52.208;5.488;2024-03-22T07:05:42;15.30;99.90
25440;DHT22;13365;52.208;5.488;2024-03-22T07:08:08;15.60;99.90
25440;DHT22;13365;52.208;5.488;2024-03-22T07:10:33;15.40;99.90
25440;DHT22;13365;52.208;5.488;2024-03-22T07:12:59;15.20;99.90
25440;DHT22;13365;52.208;5.488;2024-03-22T07:15:25;15.20;99.90
25440;DHT22;13365;52.208;5.488;2024-03-22T07:17:50;15.00;99.90
25440;DHT22;13365;52.208;5.488;2024-03-22T07:20:16;15.10;99.90
25440;DHT22;13365;52.208;5.488;2024-03-22T07:22:42;14.90;99.90
25440;DHT22;13365;52.208;5.488;2024-03-22T07:25:07;14.30;99.90
25440;DHT22;13365;52.208;5.488;2024-03-22T07:27:35;14.20;99.90
25440;DHT22;13365;52.208;5.488;2024-03-22T07:30:01;14.10;99.90
25440;DHT22;13365;52.208;5.488;2024-03-22T07:32:26;14.50;99.90
25440;DHT22;13365;52.208;5.488;2024-03-22T07:34:51;14.60;99.90
25440;DHT22;13365;52.208;5.488;2024-03-22T07:37:17;14.70;99.90
25440;DHT22;13365;52.208;5.488;2024-03-22T07:39:42;14.40;99.90
25440;DHT22;13365;52.208;5.488;2024-03-22T07:42:08;14.50;99.90
25440;DHT22;13365;52.208;5.488;2024-03-22T07:44:33;14.70;99.90
25440;DHT22;13365;52.208;5.488;2024-03-22T07:46:59;14.90;99.90
25440;DHT22;13365;52.208;5.488;2024-03-22T07:49:24;15.30;99.90
25440;DHT22;13365;52.208;5.488;2024-03-22T07:51:50;15.80;99.90
25440;DHT22;13365;52.208;5.488;2024-03-22T07:54:16;15.50;99.90
25440;DHT22;13365;52.208;5.488;2024-03-22T07:56:41;15.50;99.90
25440;DHT22;13365;52.208;5.488;2024-03-22T07:59:07;15.50;99.90
25440;DHT22;13365;52.208;5.488;2024-03-22T08:01:32;14.80;99.90
25440;DHT22;13365;52.208;5.488;2024-03-22T08:03:58;14.40;99.90
25440;DHT22;13365;52.208;5.488;2024-03-22T08:06:23;14.10;99.90
25440;DHT22;13365;52.208;5.488;2024-03-22T08:08:48;13.90;99.90
25440;DHT22;13365;52.208;5.488;2024-03-22T08:11:14;14.30;99.90
25440;DHT22;13365;52.208;5.488;2024-03-22T08:13:40;14.60;99.90
25440;DHT22;13365;52.208;5.488;2024-03-22T08:16:05;14.70;99.90
25440;DHT22;13365;52.208;5.488;2024-03-22T08:18:31;14.90;99.90
25440;DHT22;13365;52.208;5.488;2024-03-22T08:20:58;15.10;99.90
25440;DHT22;13365;52.208;5.488;2024-03-22T08:23:24;15.20;99.90
25440;DHT22;13365;52.208;5.488;2024-03-22T08:25:49;14.80;99.90
25440;DHT22;13365;52.208;5.488;2024-03-22T08:28:15;14.50;99.90
25440;DHT22;13365;52.208;5.488;2024-03-22T08:30:41;13.90;99.90
25440;DHT22;13365;52.208;5.488;2024-03-22T08:33:07;14.20;99.90
25440;DHT22;13365;52.208;5.488;2024-03-22T08:35:33;14.60;99.90
25440;DHT22;13365;52.208;5.488;2024-03-22T08:37:58;14.50;99.90
25440;DHT22;13365;52.208;5.488;2024-03-22T08:40:24;14.50;99.90
25440;DHT22;13365;52.208;5.488;2024-03-22T08:42:50;14.50;99.90
25440;DHT22;13365;52.208;5.488;2024-03-22T08:45:15;14.20;99.90
25440;DHT22;13365;52.208;5.488;2024-03-22T08:47:42;14.00;99.90
25440;DHT22;13365;52.208;5.488;2024-03-22T08:50:07;13.80;99.90
25440;DHT22;13365;52.208;5.488;2024-03-22T08:52:33;13.70;99.90
25440;DHT22;13365;52.208;5.488;2024-03-22T08:55:00;13.80;99.90
25440;DHT22;13365;52.208;5.488;2024-03-22T08:57:26;13.90;99.90
25440;DHT22;13365;52.208;5.488;2024-03-22T08:59:51;14.20;99.90
25440;DHT22;13365;52.208;5.488;2024-03-22T09:02:17;14.10;99.90
25440;DHT22;13365;52.208;5.488;2024-03-22T09:04:43;14.40;99.90
25440;DHT22;13365;52.208;5.488;2024-03-22T09:07:08;14.40;99.90
25440;DHT22;13365;52.208;5.488;2024-03-22T09:09:34;14.30;99.90
25440;DHT22;13365;52.208;5.488;2024-03-22T09:11:59;14.50;99.90
25440;DHT22;13365;52.208;5.488;2024-03-22T09:14:25;14.60;99.90
25440;DHT22;13365;52.208;5.488;2024-03-22T09:16:51;14.70;99.90
25440;DHT22;13365;52.208;5.488;2024-03-22T09:19:16;14.30;99.90
25440;DHT22;13365;52.208;5.488;2024-03-22T09:21:42;14.20;99.90
25440;DHT22;13365;52.208;5.488;2024-03-22T09:24:07;14.50;99.90
25440;DHT22;13365;52.208;5.488;2024-03-22T09:26:33;14.30;99.90
25440;DHT22;13365;52.208;5.488;2024-03-22T09:28:58;14.40;99.90
25440;DHT22;13365;52.208;5.488;2024-03-22T09:31:24;14.40;99.90
25440;DHT22;13365;52.208;5.488;2024-03-22T09:33:49;14.60;99.90
25440;DHT22;13365;52.208;5.488;2024-03-22T09:36:15;14.50;99.90
25440;DHT22;13365;52.208;5.488;2024-03-22T09:38:41;14.50;99.90
25440;DHT22;13365;52.208;5.488;2024-03-22T09:41:06;14.50;99.90
25440;DHT22;13365;52.208;5.488;2024-03-22T09:43:32;14.50;99.90
25440;DHT22;13365;52.208;5.488;2024-03-22T09:45:58;14.80;99.90
25440;DHT22;13365;52.208;5.488;2024-03-22T09:48:24;14.70;99.90
25440;DHT22;13365;52.208;5.488;2024-03-22T09:50:50;14.60;99.90
25440;DHT22;13365;52.208;5.488;2024-03-22T09:53:19;14.40;99.90
25440;DHT22;13365;52.208;5.488;2024-03-22T09:55:46;14.10;99.90
25440;DHT22;13365;52.208;5.488;2024-03-22T09:58:12;14.20;99.90
25440;DHT22;13365;52.208;5.488;2024-03-22T10:00:37;14.00;99.90
25440;DHT22;13365;52.208;5.488;2024-03-22T10:03:03;14.10;99.90
25440;DHT22;13365;52.208;5.488;2024-03-22T10:05:30;14.20;99.90
25440;DHT22;13365;52.208;5.488;2024-03-22T10:07:55;14.20;99.90
25440;DHT22;13365;52.208;5.488;2024-03-22T10:10:21;13.90;99.90
25440;DHT22;13365;52.208;5.488;2024-03-22T10:12:47;14.20;99.90
25440;DHT22;13365;52.208;5.488;2024-03-22T10:15:13;14.30;99.90
25440;DHT22;13365;52.208;5.488;2024-03-22T10:17:39;14.20;99.90
25440;DHT22;13365;52.208;5.488;2024-03-22T10:20:05;14.10;99.90
25440;DHT22;13365;52.208;5.488;2024-03-22T10:22:35;14.30;99.90
25440;DHT22;13365;52.208;5.488;2024-03-22T10:25:00;14.30;99.90
25440;DHT22;13365;52.208;5.488;2024-03-22T10:27:26;14.30;99.90
25440;DHT22;13365;52.208;5.488;2024-03-22T10:29:52;14.00;99.90
25440;DHT22;13365;52.208;5.488;2024-03-22T10:32:17;14.00;99.90
25440;DHT22;13365;52.208;5.488;2024-03-22T10:34:43;13.70;99.90
25440;DHT22;13365;52.208;5.488;2024-03-22T10:37:11;13.90;99.90
25440;DHT22;13365;52.208;5.488;2024-03-22T10:39:39;13.80;99.90
25440;DHT22;13365;52.208;5.488;2024-03-22T10:42:05;13.90;99.90
25440;DHT22;13365;52.208;5.488;2024-03-22T10:44:31;13.70;99.90
25440;DHT22;13365;52.208;5.488;2024-03-22T10:46:57;13.70;99.90
25440;DHT22;13365;52.208;5.488;2024-03-22T10:49:26;13.60;99.90
25440;DHT22;13365;52.208;5.488;2024-03-22T10:51:54;13.80;99.90
25440;DHT22;13365;52.208;5.488;2024-03-22T10:54:24;13.70;99.90
25440;DHT22;13365;52.208;5.488;2024-03-22T10:56:51;13.70;99.90
25440;DHT22;13365;52.208;5.488;2024-03-22T10:59:20;13.60;99.90
25440;DHT22;13365;52.208;5.488;2024-03-22T11:01:46;13.90;99.90
25440;DHT22;13365;52.208;5.488;2024-03-22T11:04:11;13.50;99.90
25440;DHT22;13365;52.208;5.488;2024-03-22T11:06:37;13.70;99.90
25440;DHT22;13365;52.208;5.488;2024-03-22T11:09:03;13.80;99.90
25440;DHT22;13365;52.208;5.488;2024-03-22T11:11:31;13.90;99.90
25440;DHT22;13365;52.208;5.488;2024-03-22T11:14:02;14.00;99.90
25440;DHT22;13365;52.208;5.488;2024-03-22T11:16:28;13.90;99.90
25440;DHT22;13365;52.208;5.488;2024-03-22T11:18:54;13.80;99.90
25440;DHT22;13365;52.208;5.488;2024-03-22T11:21:20;14.10;99.90
25440;DHT22;13365;52.208;5.488;2024-03-22T11:23:46;13.80;99.90
25440;DHT22;13365;52.208;5.488;2024-03-22T11:26:11;13.90;99.90
25440;DHT22;13365;52.208;5.488;2024-03-22T11:28:38;14.00;99.90
25440;DHT22;13365;52.208;5.488;2024-03-22T11:31:04;14.00;99.90
25440;DHT22;13365;52.208;5.488;2024-03-22T11:33:32;13.70;99.90
25440;DHT22;13365;52.208;5.488;2024-03-22T11:35:58;13.60;99.90
25440;DHT22;13365;52.208;5.488;2024-03-22T11:38:28;13.50;99.90
25440;DHT22;13365;52.208;5.488;2024-03-22T11:40:55;13.50;99.90
25440;DHT22;13365;52.208;5.488;2024-03-22T11:43:22;13.40;99.90
25440;DHT22;13365;52.208;5.488;2024-03-22T11:45:48;13.50;99.90
25440;DHT22;13365;52.208;5.488;2024-03-22T11:48:13;13.50;99.90
25440;DHT22;13365;52.208;5.488;2024-03-22T11:50:39;13.80;99.90
25440;DHT22;13365;52.208;5.488;2024-03-22T11:53:05;13.50;99.90
25440;DHT22;13365;52.208;5.488;2024-03-22T11:55:30;13.60;99.90
25440;DHT22;13365;52.208;5.488;2024-03-22T11:57:57;13.60;99.90
25440;DHT22;13365;52.208;5.488;2024-03-22T12:00:22;13.80;99.90
25440;DHT22;13365;52.208;5.488;2024-03-22T12:02:50;14.10;99.90
25440;DHT22;13365;52.208;5.488;2024-03-22T12:05:17;14.40;99.90
25440;DHT22;13365;52.208;5.488;2024-03-22T12:07:42;14.20;99.90
25440;DHT22;13365;52.208;5.488;2024-03-22T12:10:08;14.10;99.90
25440;DHT22;13365;52.208;5.488;2024-03-22T12:12:33;14.20;99.90
25440;DHT22;13365;52.208;5.488;2024-03-22T12:14:59;14.10;99.90
25440;DHT22;13365;52.208;5.488;2024-03-22T12:17:24;14.20;99.90
25440;DHT22;13365;52.208;5.488;2024-03-22T12:19:50;14.10;99.90
25440;DHT22;13365;52.208;5.488;2024-03-22T12:22:15;14.10;99.90
25440;DHT22;13365;52.208;5.488;2024-03-22T12:24:41;14.10;99.90
25440;DHT22;13365;52.208;5.488;2024-03-22T12:27:07;13.60;99.90
25440;DHT22;13365;52.208;5.488;2024-03-22T12:29:33;13.40;99.90
25440;DHT22;13365;52.208;5.488;2024-03-22T12:31:59;13.70;99.90
25440;DHT22;13365;52.208;5.488;2024-03-22T12:34:27;13.50;99.90
25440;DHT22;13365;52.208;5.488;2024-03-22T12:36:52;13.50;99.90
25440;DHT22;13365;52.208;5.488;2024-03-22T12:39:18;13.30;99.90
25440;DHT22;13365;52.208;5.488;2024-03-22T12:41:43;13.30;99.90
25440;DHT22;13365;52.208;5.488;2024-03-22T12:44:09;13.40;99.90
25440;DHT22;13365;52.208;5.488;2024-03-22T12:46:34;13.40;99.90
25440;DHT22;13365;52.208;5.488;2024-03-22T12:49:00;13.50;99.90
25440;DHT22;13365;52.208;5.488;2024-03-22T12:51:25;13.70;99.90
25440;DHT22;13365;52.208;5.488;2024-03-22T12:53:51;13.70;99.90
25440;DHT22;13365;52.208;5.488;2024-03-22T12:56:16;13.60;99.90
25440;DHT22;13365;52.208;5.488;2024-03-22T12:58:42;13.70;99.90
25440;DHT22;13365;52.208;5.488;2024-03-22T13:01:08;13.60;99.90
25440;DHT22;13365;52.208;5.488;2024-03-22T13:03:33;13.70;99.90
25440;DHT22;13365;52.208;5.488;2024-03-22T13:05:59;13.80;99.90
25440;DHT22;13365;52.208;5.488;2024-03-22T13:08:24;13.70;99.90
25440;DHT22;13365;52.208;5.488;2024-03-22T13:10:50;13.90;99.90
25440;DHT22;13365;52.208;5.488;2024-03-22T13:13:17;14.00;99.90
25440;DHT22;13365;52.208;5.488;2024-03-22T13:15:43;13.90;99.90
25440;DHT22;13365;52.208;5.488;2024-03-22T13:18:08;13.70;99.90
25440;DHT22;13365;52.208;5.488;2024-03-22T13:20:37;13.70;99.90
25440;DHT22;13365;52.208;5.488;2024-03-22T13:23:04;14.00;99.90
25440;DHT22;13365;52.208;5.488;2024-03-22T13:25:30;13.90;99.90
25440;DHT22;13365;52.208;5.488;2024-03-22T13:27:55;13.70;99.90
25440;DHT22;13365;52.208;5.488;2024-03-22T13:30:21;13.70;99.90
25440;DHT22;13365;52.208;5.488;2024-03-22T13:32:47;13.80;99.90
25440;DHT22;13365;52.208;5.488;2024-03-22T13:35:12;14.10;99.90
25440;DHT22;13365;52.208;5.488;2024-03-22T13:37:39;14.30;99.90
25440;DHT22;13365;52.208;5.488;2024-03-22T13:40:04;14.40;99.90
25440;DHT22;13365;52.208;5.488;2024-03-22T13:42:30;14.60;99.90
25440;DHT22;13365;52.208;5.488;2024-03-22T13:44:56;14.70;99.90
25440;DHT22;13365;52.208;5.488;2024-03-22T13:47:22;14.40;99.90
25440;DHT22;13365;52.208;5.488;2024-03-22T13:49:47;13.90;99.90
25440;DHT22;13365;52.208;5.488;2024-03-22T13:52:13;14.00;99.90
25440;DHT22;13365;52.208;5.488;2024-03-22T13:54:38;13.90;99.90
25440;DHT22;13365;52.208;5.488;2024-03-22T13:57:04;14.00;99.90
25440;DHT22;13365;52.208;5.488;2024-03-22T13:59:29;14.00;99.90
25440;DHT22;13365;52.208;5.488;2024-03-22T14:01:58;14.20;99.90
25440;DHT22;13365;52.208;5.488;2024-03-22T14:04:24;14.40;99.90
25440;DHT22;13365;52.208;5.488;2024-03-22T14:06:51;14.50;99.90
25440;DHT22;13365;52.208;5.488;2024-03-22T14:09:17;14.20;99.90
25440;DHT22;13365;52.208;5.488;2024-03-22T14:11:42;14.00;99.90
25440;DHT22;13365;52.208;5.488;2024-03-22T14:14:09;14.20;99.90
25440;DHT22;13365;52.208;5.488;2024-03-22T14:16:37;14.40;99.90
25440;DHT22;13365;52.208;5.488;2024-03-22T14:19:03;14.30;99.90
25440;DHT22;13365;52.208;5.488;2024-03-22T14:21:28;14.40;99.90
25440;DHT22;13365;52.208;5.488;2024-03-22T14:23:54;14.60;99.90
25440;DHT22;13365;52.208;5.488;2024-03-22T14:26:20;14.60;99.90
25440;DHT22;13365;52.208;5.488;2024-03-22T14:28:46;14.40;99.90
25440;DHT22;13365;52.208;5.488;2024-03-22T14:31:12;14.40;99.90
25440;DHT22;13365;52.208;5.488;2024-03-22T14:33:38;14.40;99.90
25440;DHT22;13365;52.208;5.488;2024-03-22T14:36:04;14.60;99.90
25440;DHT22;13365;52.208;5.488;2024-03-22T14:38:30;14.40;99.90
25440;DHT22;13365;52.208;5.488;2024-03-22T14:40:56;14.80;99.90
25440;DHT22;13365;52.208;5.488;2024-03-22T14:43:25;14.80;99.90
25440;DHT22;13365;52.208;5.488;2024-03-22T14:45:51;14.80;99.90
25440;DHT22;13365;52.208;5.488;2024-03-22T14:48:20;14.80;99.90
25440;DHT22;13365;52.208;5.488;2024-03-22T14:50:46;14.70;99.90
25440;DHT22;13365;52.208;5.488;2024-03-22T14:53:11;14.40;99.90
25440;DHT22;13365;52.208;5.488;2024-03-22T14:55:37;14.40;99.90
25440;DHT22;13365;52.208;5.488;2024-03-22T14:58:03;14.60;99.90
25440;DHT22;13365;52.208;5.488;2024-03-22T15:00:29;14.50;99.90
25440;DHT22;13365;52.208;5.488;2024-03-22T15:02:54;14.10;99.90
25440;DHT22;13365;52.208;5.488;2024-03-22T15:05:19;13.80;99.90
25440;DHT22;13365;52.208;5.488;2024-03-22T15:07:45;13.90;99.90
25440;DHT22;13365;52.208;5.488;2024-03-22T15:10:10;13.90;99.90
25440;DHT22;13365;52.208;5.488;2024-03-22T15:12:36;14.10;99.90
25440;DHT22;13365;52.208;5.488;2024-03-22T15:15:02;14.30;99.90
25440;DHT22;13365;52.208;5.488;2024-03-22T15:17:29;14.50;99.90
25440;DHT22;13365;52.208;5.488;2024-03-22T15:19:55;14.40;99.90